createdAt,value
2019-06-08T00:00:34.365Z,1007.98
2019-06-08T00:01:34.348Z,1007.99
2019-06-08T00:02:34.346Z,1008.01
2019-06-08T00:03:34.328Z,1007.98
2019-06-08T00:04:34.320Z,1007.94
2019-06-08T00:05:34.307Z,1007.90
2019-06-08T00:06:34.296Z,1007.92
2019-06-08T00:07:34.284Z,1007.93
2019-06-08T00:08:34.271Z,1007.97
2019-06-08T00:09:34.261Z,1008.03
2019-06-08T00:10:34.252Z,1008.01
2019-06-08T00:11:34.244Z,1008.02
2019-06-08T00:12:34.230Z,1008.01
2019-06-08T00:13:34.227Z,1008.01
2019-06-08T00:14:34.209Z,1008.01
2019-06-08T00:15:34.198Z,1007.99
2019-06-08T00:16:34.199Z,1007.93
2019-06-08T00:17:38.509Z,1008.00
2019-06-08T00:18:35.161Z,1007.96
2019-06-08T00:19:34.153Z,1008.01
2019-06-08T00:20:34.140Z,1008.04
2019-06-08T00:21:34.127Z,1008.07
2019-06-08T00:22:34.117Z,1008.15
2019-06-08T00:23:34.106Z,1008.20
2019-06-08T00:24:34.098Z,1008.24
2019-06-08T00:25:34.082Z,1008.30
2019-06-08T00:26:34.072Z,1008.32
2019-06-08T00:27:34.063Z,1008.35
2019-06-08T00:28:34.052Z,1008.33
2019-06-08T00:29:34.041Z,1008.26
2019-06-08T00:30:35.236Z,1008.16
2019-06-08T00:31:34.019Z,1008.09
2019-06-08T00:32:34.044Z,1008.06
2019-06-08T00:33:33.995Z,1008.09
2019-06-08T00:34:33.991Z,1008.20
2019-06-08T00:35:33.973Z,1008.25
2019-06-08T00:36:33.961Z,1008.22
2019-06-08T00:37:33.951Z,1008.24
2019-06-08T00:38:33.941Z,1008.23
2019-06-08T00:39:33.927Z,1008.22
2019-06-08T00:40:33.924Z,1008.28
2019-06-08T00:41:33.912Z,1008.34
2019-06-08T00:42:33.897Z,1008.32
2019-06-08T00:43:33.889Z,1008.38
2019-06-08T00:44:33.875Z,1008.31
2019-06-08T00:45:33.863Z,1008.37
2019-06-08T00:46:33.860Z,1008.45
2019-06-08T00:47:47.162Z,1008.44
2019-06-08T00:48:34.827Z,1008.45
2019-06-08T00:49:33.818Z,1008.50
2019-06-08T00:50:33.806Z,1008.49
2019-06-08T00:51:33.799Z,1008.53
2019-06-08T00:52:33.784Z,1008.58
2019-06-08T00:53:33.776Z,1008.65
2019-06-08T00:54:33.766Z,1008.63
2019-06-08T00:55:33.763Z,1008.64
2019-06-08T00:56:33.744Z,1008.64
2019-06-08T00:57:33.733Z,1008.70
2019-06-08T00:58:33.718Z,1008.68
2019-06-08T00:59:33.709Z,1008.65
2019-06-08T01:00:33.697Z,1008.70
2019-06-08T01:01:33.689Z,1008.67
2019-06-08T01:02:33.676Z,1008.72
2019-06-08T01:03:33.665Z,1008.74
2019-06-08T01:04:33.661Z,1008.74
2019-06-08T01:05:33.641Z,1008.78
2019-06-08T01:06:33.632Z,1008.76
2019-06-08T01:07:33.621Z,1008.79
2019-06-08T01:08:33.623Z,1008.83
2019-06-08T01:09:33.598Z,1008.84
2019-06-08T01:10:33.588Z,1008.85
2019-06-08T01:11:33.575Z,1008.89
2019-06-08T01:12:33.565Z,1008.93
2019-06-08T01:13:33.554Z,1008.97
2019-06-08T01:14:33.550Z,1009.01
2019-06-08T01:15:34.442Z,1009.04
2019-06-08T01:16:33.522Z,1009.08
2019-06-08T01:17:33.510Z,1009.09
2019-06-08T01:18:33.501Z,1009.11
2019-06-08T01:19:33.492Z,1009.10
2019-06-08T01:20:33.476Z,1009.13
2019-06-08T01:21:33.464Z,1009.12
2019-06-08T01:22:33.454Z,1009.13
2019-06-08T01:23:33.447Z,1009.10
2019-06-08T01:24:33.464Z,1009.13
2019-06-08T01:25:33.421Z,1009.11
2019-06-08T01:26:33.412Z,1009.16
2019-06-08T01:27:33.399Z,1009.15
2019-06-08T01:28:33.393Z,1009.12
2019-06-08T01:29:33.374Z,1009.13
2019-06-08T01:30:33.366Z,1009.10
2019-06-08T01:31:33.371Z,1009.17
2019-06-08T01:32:33.497Z,1009.16
2019-06-08T01:33:33.336Z,1009.19
2019-06-08T01:34:33.324Z,1009.20
2019-06-08T01:35:33.310Z,1009.20
2019-06-08T01:36:33.301Z,1009.27
2019-06-08T01:37:33.285Z,1009.25
2019-06-08T01:38:33.283Z,1009.25
2019-06-08T01:39:33.267Z,1009.25
2019-06-08T01:40:33.256Z,1009.25
2019-06-08T01:41:33.247Z,1009.34
2019-06-08T01:42:33.235Z,1009.37
2019-06-08T01:43:33.229Z,1009.38
2019-06-08T01:44:33.211Z,1009.39
2019-06-08T01:45:33.531Z,1009.35
2019-06-08T01:46:33.187Z,1009.42
2019-06-08T01:47:33.177Z,1009.44
2019-06-08T01:48:33.166Z,1009.52
2019-06-08T01:49:33.171Z,1009.54
2019-06-08T01:50:33.184Z,1009.54
2019-06-08T01:51:33.133Z,1009.58
2019-06-08T01:52:33.121Z,1009.57
2019-06-08T01:53:33.117Z,1009.63
2019-06-08T01:54:33.384Z,1009.62
2019-06-08T01:55:33.320Z,1009.60
2019-06-08T01:56:33.427Z,1009.67
2019-06-08T01:57:33.816Z,1009.65
2019-06-08T01:58:33.478Z,1009.68
2019-06-08T01:59:34.678Z,1009.67
2019-06-08T02:00:39.392Z,1009.62
2019-06-08T02:01:34.252Z,1009.66
2019-06-08T02:02:34.205Z,1009.68
2019-06-08T02:03:34.675Z,1009.82
2019-06-08T02:04:33.528Z,1009.77
2019-06-08T02:05:34.415Z,1009.74
2019-06-08T02:06:32.966Z,1009.85
2019-06-08T02:07:32.957Z,1009.73
2019-06-08T02:08:32.942Z,1009.73
2019-06-08T02:09:32.932Z,1009.85
2019-06-08T02:10:32.994Z,1009.92
2019-06-08T02:11:33.071Z,1009.91
2019-06-08T02:12:33.136Z,1009.98
2019-06-08T02:13:33.161Z,1009.92
2019-06-08T02:14:33.248Z,1009.99
2019-06-08T02:15:33.859Z,1010.02
2019-06-08T02:16:33.343Z,1010.12
2019-06-08T02:17:33.469Z,1010.13
2019-06-08T02:18:44.106Z,1010.22
2019-06-08T02:19:34.797Z,1010.26
2019-06-08T02:20:33.072Z,1010.30
2019-06-08T02:21:32.939Z,1010.35
2019-06-08T02:22:33.110Z,1010.38
2019-06-08T02:23:33.096Z,1010.40
2019-06-08T02:24:33.383Z,1010.56
2019-06-08T02:25:33.538Z,1010.53
2019-06-08T02:26:35.157Z,1010.53
2019-06-08T02:27:33.552Z,1010.60
2019-06-08T02:28:33.640Z,1010.84
2019-06-08T02:29:33.689Z,1010.73
2019-06-08T02:30:36.006Z,1010.94
2019-06-08T02:31:33.222Z,1010.83
2019-06-08T02:32:33.505Z,1010.85
2019-06-08T02:33:34.677Z,1010.88
2019-06-08T02:34:34.732Z,1010.94
2019-06-08T02:35:32.947Z,1011.01
2019-06-08T02:36:33.745Z,1011.06
2019-06-08T02:37:33.085Z,1011.08
2019-06-08T02:38:34.621Z,1011.04
2019-06-08T02:39:32.807Z,1011.03
2019-06-08T02:40:34.576Z,1011.07
2019-06-08T02:41:33.133Z,1011.02
2019-06-08T02:42:33.082Z,1011.06
2019-06-08T02:43:33.349Z,1011.03
2019-06-08T02:44:34.291Z,1011.15
2019-06-08T02:45:34.053Z,1011.21
2019-06-08T02:46:33.320Z,1011.15
2019-06-08T02:47:33.051Z,1011.21
2019-06-08T02:48:33.597Z,1011.24
2019-06-08T02:49:33.228Z,1011.26
2019-06-08T02:50:33.042Z,1011.30
2019-06-08T02:51:34.302Z,1011.31
2019-06-08T02:52:34.348Z,1011.36
2019-06-08T02:53:34.278Z,1011.29
2019-06-08T02:54:34.719Z,1011.22
2019-06-08T02:55:33.066Z,1011.27
2019-06-08T02:56:33.936Z,1011.30
2019-06-08T02:57:33.239Z,1011.29
2019-06-08T02:58:33.580Z,1011.29
2019-06-08T02:59:32.921Z,1011.37
2019-06-08T03:00:33.659Z,1011.32
2019-06-08T03:01:33.702Z,1011.31
2019-06-08T03:02:33.903Z,1011.25
2019-06-08T03:03:33.796Z,1011.32
2019-06-08T03:04:32.455Z,1011.40
2019-06-08T03:05:33.987Z,1011.45
2019-06-08T03:06:34.537Z,1011.48
2019-06-08T03:07:32.385Z,1011.49
2019-06-08T03:08:32.838Z,1011.50
2019-06-08T03:09:32.508Z,1011.48
2019-06-08T03:10:32.939Z,1011.50
2019-06-08T03:11:32.647Z,1011.45
2019-06-08T03:12:32.992Z,1011.42
2019-06-08T03:13:33.582Z,1011.36
2019-06-08T03:14:33.318Z,1011.39
2019-06-08T03:15:34.490Z,1011.35
2019-06-08T03:16:33.347Z,1011.36
2019-06-08T03:17:33.389Z,1011.40
2019-06-08T03:18:33.642Z,1011.45
2019-06-08T03:19:33.321Z,1011.47
2019-06-08T03:20:33.449Z,1011.46
2019-06-08T03:21:33.828Z,1011.49
2019-06-08T03:22:34.036Z,1011.48
2019-06-08T03:23:34.058Z,1011.45
2019-06-08T03:24:32.905Z,1011.41
2019-06-08T03:25:35.182Z,1011.46
2019-06-08T03:26:34.249Z,1011.37
2019-06-08T03:27:32.664Z,1011.39
2019-06-08T03:28:32.625Z,1011.39
2019-06-08T03:29:32.468Z,1011.40
2019-06-08T03:30:35.302Z,1011.46
2019-06-08T03:31:36.125Z,1011.42
2019-06-08T03:32:34.840Z,1011.43
2019-06-08T03:33:34.527Z,1011.37
2019-06-08T03:34:35.571Z,1011.42
2019-06-08T03:35:36.056Z,1011.44
2019-06-08T03:36:35.823Z,1011.45
2019-06-08T03:37:33.280Z,1011.40
2019-06-08T03:38:33.595Z,1011.43
2019-06-08T03:39:31.951Z,1011.36
2019-06-08T03:40:33.791Z,1011.35
2019-06-08T03:41:31.930Z,1011.40
2019-06-08T03:42:31.920Z,1011.32
2019-06-08T03:43:31.907Z,1011.39
2019-06-08T03:44:31.903Z,1011.48
2019-06-08T03:45:31.885Z,1011.49
2019-06-08T03:46:31.872Z,1011.51
2019-06-08T03:47:31.862Z,1011.59
2019-06-08T03:48:31.854Z,1011.60
2019-06-08T03:49:42.910Z,1011.58
2019-06-08T03:50:32.831Z,1011.56
2019-06-08T03:51:35.349Z,1011.49
2019-06-08T03:52:32.808Z,1011.45
2019-06-08T03:53:31.798Z,1011.51
2019-06-08T03:54:31.793Z,1011.57
2019-06-08T03:55:31.777Z,1011.56
2019-06-08T03:56:31.764Z,1011.55
2019-06-08T03:57:31.760Z,1011.58
2019-06-08T03:58:34.124Z,1011.54
2019-06-08T03:59:31.735Z,1011.53
2019-06-08T04:00:31.721Z,1011.51
2019-06-08T04:01:31.709Z,1011.47
2019-06-08T04:02:31.699Z,1011.49
2019-06-08T04:03:31.690Z,1011.35
2019-06-08T04:04:31.689Z,1011.31
2019-06-08T04:05:31.668Z,1011.38
2019-06-08T04:06:31.655Z,1011.42
2019-06-08T04:07:31.646Z,1011.49
2019-06-08T04:08:31.635Z,1011.43
2019-06-08T04:09:31.637Z,1011.45
2019-06-08T04:10:31.614Z,1011.40
2019-06-08T04:11:31.606Z,1011.47
2019-06-08T04:12:31.594Z,1011.51
2019-06-08T04:13:31.580Z,1011.47
2019-06-08T04:14:31.600Z,1011.44
2019-06-08T04:15:31.560Z,1011.48
2019-06-08T04:16:31.552Z,1011.41
2019-06-08T04:17:31.545Z,1011.35
2019-06-08T04:18:31.526Z,1011.34
2019-06-08T04:19:31.514Z,1011.31
2019-06-08T04:20:31.503Z,1011.29
2019-06-08T04:21:31.573Z,1011.30
2019-06-08T04:22:31.483Z,1011.31
2019-06-08T04:23:31.473Z,1011.27
2019-06-08T04:24:31.463Z,1011.34
2019-06-08T04:25:31.448Z,1011.42
2019-06-08T04:26:31.445Z,1011.48
2019-06-08T04:27:31.440Z,1011.58
2019-06-08T04:28:31.429Z,1011.63
2019-06-08T04:29:31.405Z,1011.58
2019-06-08T04:30:31.396Z,1011.55
2019-06-08T04:31:31.388Z,1011.56
2019-06-08T04:32:31.376Z,1011.61
2019-06-08T04:33:31.362Z,1011.63
2019-06-08T04:34:31.356Z,1011.74
2019-06-08T04:35:31.344Z,1011.88
2019-06-08T04:36:31.330Z,1011.98
2019-06-08T04:37:31.322Z,1012.08
2019-06-08T04:38:31.307Z,1012.17
2019-06-08T04:39:31.299Z,1012.21
2019-06-08T04:40:31.291Z,1012.24
2019-06-08T04:41:31.276Z,1012.17
2019-06-08T04:42:31.276Z,1012.13
2019-06-08T04:43:31.256Z,1012.08
2019-06-08T04:44:31.245Z,1012.16
2019-06-08T04:45:31.268Z,1012.21
2019-06-08T04:46:31.222Z,1012.26
2019-06-08T04:47:31.214Z,1012.27
2019-06-08T04:48:31.201Z,1012.23
2019-06-08T04:49:31.194Z,1012.21
2019-06-08T04:50:31.181Z,1012.31
2019-06-08T04:51:31.175Z,1012.27
2019-06-08T04:52:31.162Z,1012.32
2019-06-08T04:53:31.145Z,1012.31
2019-06-08T04:54:31.157Z,1012.39
2019-06-08T04:55:31.208Z,1012.45
2019-06-08T04:56:31.114Z,1012.54
2019-06-08T04:57:31.103Z,1012.62
2019-06-08T04:58:31.095Z,1012.58
2019-06-08T04:59:31.081Z,1012.60
2019-06-08T05:00:31.525Z,1012.59
2019-06-08T05:01:31.059Z,1012.55
2019-06-08T05:02:31.047Z,1012.54
2019-06-08T05:03:31.057Z,1012.58
2019-06-08T05:04:31.032Z,1012.62
2019-06-08T05:05:31.020Z,1012.69
2019-06-08T05:06:31.029Z,1012.74
2019-06-08T05:07:30.995Z,1012.76
2019-06-08T05:08:30.983Z,1012.77
2019-06-08T05:09:30.977Z,1012.76
2019-06-08T05:10:30.962Z,1012.78
2019-06-08T05:11:30.953Z,1012.77
2019-06-08T05:12:30.950Z,1012.84
2019-06-08T05:13:30.939Z,1012.83
2019-06-08T05:14:30.926Z,1012.86
2019-06-08T05:15:30.906Z,1012.92
2019-06-08T05:16:30.901Z,1012.93
2019-06-08T05:17:30.886Z,1012.97
2019-06-08T05:18:30.875Z,1012.98
2019-06-08T05:19:31.001Z,1013.04
2019-06-08T05:20:38.837Z,1012.98
2019-06-08T05:21:31.845Z,1013.01
2019-06-08T05:22:30.832Z,1013.05
2019-06-08T05:23:30.821Z,1013.04
2019-06-08T05:24:30.814Z,1013.03
2019-06-08T05:25:30.797Z,1013.06
2019-06-08T05:26:30.799Z,1013.10
2019-06-08T05:27:30.782Z,1013.07
2019-06-08T05:28:30.791Z,1013.13
2019-06-08T05:29:30.757Z,1013.21
2019-06-08T05:30:30.743Z,1013.22
2019-06-08T05:31:30.734Z,1013.20
2019-06-08T05:32:30.724Z,1013.19
2019-06-08T05:33:30.721Z,1013.14
2019-06-08T05:34:30.703Z,1013.13
2019-06-08T05:35:30.703Z,1013.10
2019-06-08T05:36:30.682Z,1013.11
2019-06-08T05:37:30.666Z,1013.04
2019-06-08T05:38:30.662Z,1013.02
2019-06-08T05:39:30.910Z,1012.97
2019-06-08T05:40:30.634Z,1012.96
2019-06-08T05:41:30.625Z,1012.96
2019-06-08T05:42:30.614Z,1012.96
2019-06-08T05:43:30.603Z,1013.05
2019-06-08T05:44:30.608Z,1013.09
2019-06-08T05:45:30.581Z,1013.18
2019-06-08T05:46:30.568Z,1013.25
2019-06-08T05:47:30.558Z,1013.38
2019-06-08T05:48:30.545Z,1013.37
2019-06-08T05:49:30.534Z,1013.44
2019-06-08T05:50:30.539Z,1013.47
2019-06-08T05:51:30.513Z,1013.53
2019-06-08T05:52:30.538Z,1013.51
2019-06-08T05:53:30.489Z,1013.49
2019-06-08T05:54:30.487Z,1013.57
2019-06-08T05:55:30.468Z,1013.67
2019-06-08T05:56:30.458Z,1013.48
2019-06-08T05:57:30.450Z,1013.50
2019-06-08T05:58:30.436Z,1013.57
2019-06-08T05:59:30.425Z,1013.38
2019-06-08T06:00:30.414Z,1013.38
2019-06-08T06:01:30.403Z,1013.33
2019-06-08T06:02:30.394Z,1013.35
2019-06-08T06:03:30.389Z,1013.31
2019-06-08T06:04:30.384Z,1013.45
2019-06-08T06:05:30.358Z,1013.37
2019-06-08T06:06:30.349Z,1013.53
2019-06-08T06:07:30.339Z,1013.48
2019-06-08T06:08:30.342Z,1013.53
2019-06-08T06:09:30.318Z,1013.44
2019-06-08T06:10:30.305Z,1013.48
2019-06-08T06:11:30.295Z,1013.44
2019-06-08T06:12:30.283Z,1013.46
2019-06-08T06:13:30.277Z,1013.43
2019-06-08T06:14:30.270Z,1013.38
2019-06-08T06:15:30.253Z,1013.40
2019-06-08T06:16:30.239Z,1013.36
2019-06-08T06:17:30.231Z,1013.39
2019-06-08T06:18:30.222Z,1013.44
2019-06-08T06:19:30.208Z,1013.58
2019-06-08T06:20:30.199Z,1013.50
2019-06-08T06:21:30.187Z,1013.54
2019-06-08T06:22:30.173Z,1013.54
2019-06-08T06:23:30.162Z,1013.59
2019-06-08T06:24:30.164Z,1013.53
2019-06-08T06:25:30.144Z,1013.64
2019-06-08T06:26:30.132Z,1013.69
2019-06-08T06:27:30.123Z,1013.73
2019-06-08T06:28:30.113Z,1013.79
2019-06-08T06:29:30.104Z,1013.73
2019-06-08T06:30:30.090Z,1013.78
2019-06-08T06:31:30.076Z,1013.81
2019-06-08T06:32:30.080Z,1013.73
2019-06-08T06:33:30.056Z,1013.67
2019-06-08T06:34:30.048Z,1013.74
2019-06-08T06:35:30.050Z,1013.66
2019-06-08T06:36:30.021Z,1013.65
2019-06-08T06:37:30.013Z,1013.59
2019-06-08T06:38:30.002Z,1013.62
2019-06-08T06:39:29.991Z,1013.65
2019-06-08T06:40:29.984Z,1013.72
2019-06-08T06:41:29.974Z,1013.69
2019-06-08T06:42:29.961Z,1013.66
2019-06-08T06:43:29.953Z,1013.61
2019-06-08T06:44:29.944Z,1013.63
2019-06-08T06:45:29.925Z,1013.62
2019-06-08T06:46:29.913Z,1013.57
2019-06-08T06:47:29.902Z,1013.63
2019-06-08T06:48:29.896Z,1013.60
2019-06-08T06:49:29.882Z,1013.71
2019-06-08T06:50:29.889Z,1013.85
2019-06-08T06:51:29.861Z,1013.92
2019-06-08T06:52:29.849Z,1013.90
2019-06-08T06:53:29.840Z,1013.91
2019-06-08T06:54:29.849Z,1013.91
2019-06-08T06:55:29.815Z,1014.04
2019-06-08T06:56:29.805Z,1014.07
2019-06-08T06:57:29.795Z,1014.13
2019-06-08T06:58:29.783Z,1014.07
2019-06-08T06:59:29.774Z,1014.12
2019-06-08T07:00:29.761Z,1014.19
2019-06-08T07:01:29.753Z,1014.23
2019-06-08T07:02:29.740Z,1014.29
2019-06-08T07:03:29.742Z,1014.19
2019-06-08T07:04:29.726Z,1014.37
2019-06-08T07:05:29.706Z,1014.24
2019-06-08T07:06:29.696Z,1014.28
2019-06-08T07:07:29.684Z,1014.43
2019-06-08T07:08:29.679Z,1014.29
2019-06-08T07:09:29.663Z,1014.32
2019-06-08T07:10:29.654Z,1014.28
2019-06-08T07:11:29.646Z,1014.30
2019-06-08T07:12:29.634Z,1014.30
2019-06-08T07:13:29.630Z,1014.27
2019-06-08T07:14:29.611Z,1014.40
2019-06-08T07:15:29.598Z,1014.41
2019-06-08T07:16:29.587Z,1014.33
2019-06-08T07:17:29.589Z,1014.40
2019-06-08T07:18:29.566Z,1014.37
2019-06-08T07:19:29.563Z,1014.39
2019-06-08T07:20:29.549Z,1014.45
2019-06-08T07:21:41.380Z,1014.46
2019-06-08T07:22:30.523Z,1014.33
2019-06-08T07:23:29.513Z,1014.35
2019-06-08T07:24:29.503Z,1014.33
2019-06-08T07:25:29.490Z,1014.35
2019-06-08T07:26:29.481Z,1014.38
2019-06-08T07:27:29.467Z,1014.33
2019-06-08T07:28:29.466Z,1014.34
2019-06-08T07:29:29.447Z,1014.35
2019-06-08T07:30:29.437Z,1014.35
2019-06-08T07:31:29.429Z,1014.45
2019-06-08T07:32:29.415Z,1014.52
2019-06-08T07:33:29.406Z,1014.44
2019-06-08T07:34:29.395Z,1014.55
2019-06-08T07:35:29.381Z,1014.56
2019-06-08T07:36:29.371Z,1014.61
2019-06-08T07:37:29.576Z,1014.68
2019-06-08T07:38:29.350Z,1014.78
2019-06-08T07:39:29.344Z,1014.88
2019-06-08T07:40:29.326Z,1014.97
2019-06-08T07:41:29.319Z,1014.94
2019-06-08T07:42:29.308Z,1014.88
2019-06-08T07:43:29.295Z,1014.91
2019-06-08T07:44:29.289Z,1014.83
2019-06-08T07:45:29.273Z,1014.84
2019-06-08T07:46:29.263Z,1014.83
2019-06-08T07:47:29.252Z,1014.89
2019-06-08T07:48:29.240Z,1014.88
2019-06-08T07:49:29.231Z,1014.94
2019-06-08T07:50:29.219Z,1014.94
2019-06-08T07:51:29.213Z,1015.09
2019-06-08T07:52:29.197Z,1015.07
2019-06-08T07:53:29.200Z,1015.07
2019-06-08T07:54:29.183Z,1015.06
2019-06-08T07:55:29.163Z,1015.06
2019-06-08T07:56:29.154Z,1015.05
2019-06-08T07:57:29.150Z,1015.00
2019-06-08T07:58:29.132Z,1014.98
2019-06-08T07:59:29.121Z,1014.93
2019-06-08T08:00:29.111Z,1014.88
2019-06-08T08:01:36.052Z,1014.86
2019-06-08T08:02:30.085Z,1014.82
2019-06-08T08:03:29.076Z,1014.95
2019-06-08T08:04:29.067Z,1015.03
2019-06-08T08:05:29.054Z,1015.07
2019-06-08T08:06:30.435Z,1015.12
2019-06-08T08:07:29.034Z,1015.14
2019-06-08T08:08:29.022Z,1015.22
2019-06-08T08:09:29.573Z,1015.34
2019-06-08T08:10:29.006Z,1015.36
2019-06-08T08:11:29.041Z,1015.37
2019-06-08T08:12:28.981Z,1015.43
2019-06-08T08:13:28.969Z,1015.33
2019-06-08T08:14:28.961Z,1015.45
2019-06-08T08:15:28.949Z,1015.45
2019-06-08T08:16:28.934Z,1015.37
2019-06-08T08:17:28.923Z,1015.41
2019-06-08T08:18:28.917Z,1015.40
2019-06-08T08:19:28.903Z,1015.37
2019-06-08T08:20:28.890Z,1015.39
2019-06-08T08:21:29.589Z,1015.32
2019-06-08T08:22:29.589Z,1015.34
2019-06-08T08:23:28.860Z,1015.33
2019-06-08T08:24:28.853Z,1015.29
2019-06-08T08:25:28.841Z,1015.28
2019-06-08T08:26:31.308Z,1015.29
2019-06-08T08:27:29.816Z,1015.34
2019-06-08T08:28:28.805Z,1015.24
2019-06-08T08:29:31.374Z,1015.21
2019-06-08T08:30:28.782Z,1015.26
2019-06-08T08:31:28.772Z,1015.19
2019-06-08T08:32:28.767Z,1015.18
2019-06-08T08:33:28.750Z,1015.23
2019-06-08T08:34:28.748Z,1015.28
2019-06-08T08:35:28.729Z,1015.27
2019-06-08T08:36:30.129Z,1015.27
2019-06-08T08:37:28.707Z,1015.22
2019-06-08T08:38:28.700Z,1015.18
2019-06-08T08:39:28.684Z,1015.18
2019-06-08T08:40:28.676Z,1015.30
2019-06-08T08:41:28.664Z,1015.36
2019-06-08T08:42:30.134Z,1015.25
2019-06-08T08:43:28.640Z,1015.30
2019-06-08T08:44:28.633Z,1015.28
2019-06-08T08:45:28.623Z,1015.30
2019-06-08T08:46:28.724Z,1015.30
2019-06-08T08:47:30.818Z,1015.18
2019-06-08T08:48:31.502Z,1015.17
2019-06-08T08:49:28.576Z,1015.20
2019-06-08T08:50:28.566Z,1015.21
2019-06-08T08:51:28.556Z,1015.07
2019-06-08T08:52:36.806Z,1015.00
2019-06-08T08:53:29.534Z,1015.00
2019-06-08T08:54:29.788Z,1014.96
2019-06-08T08:55:28.511Z,1014.96
2019-06-08T08:56:28.498Z,1014.82
2019-06-08T08:57:28.940Z,1014.86
2019-06-08T08:58:28.483Z,1014.75
2019-06-08T08:59:28.466Z,1014.59
2019-06-08T09:00:28.456Z,1014.53
2019-06-08T09:01:28.967Z,1014.45
2019-06-08T09:02:28.437Z,1014.47
2019-06-08T09:03:33.247Z,1014.42
2019-06-08T09:04:29.418Z,1014.45
2019-06-08T09:05:28.403Z,1014.44
2019-06-08T09:06:28.430Z,1014.45
2019-06-08T09:07:28.381Z,1014.52
2019-06-08T09:08:29.935Z,1014.80
2019-06-08T09:09:28.891Z,1015.04
2019-06-08T09:10:28.347Z,1015.12
2019-06-08T09:11:28.906Z,1015.17
2019-06-08T09:12:28.338Z,1015.34
2019-06-08T09:13:28.386Z,1015.41
2019-06-08T09:14:28.312Z,1015.55
2019-06-08T09:15:31.419Z,1015.53
2019-06-08T09:16:28.859Z,1015.57
2019-06-08T09:17:28.290Z,1015.62
2019-06-08T09:18:28.691Z,1015.68
2019-06-08T09:19:28.326Z,1015.65
2019-06-08T09:20:28.647Z,1015.63
2019-06-08T09:21:28.317Z,1015.63
2019-06-08T09:22:31.170Z,1015.65
2019-06-08T09:23:28.291Z,1015.54
2019-06-08T09:24:28.603Z,1015.56
2019-06-08T09:25:28.225Z,1015.49
2019-06-08T09:26:28.745Z,1015.50
2019-06-08T09:27:28.185Z,1015.57
2019-06-08T09:28:28.582Z,1015.62
2019-06-08T09:29:28.927Z,1015.61
2019-06-08T09:30:28.145Z,1015.56
2019-06-08T09:31:30.881Z,1015.62
2019-06-08T09:32:28.326Z,1015.69
2019-06-08T09:33:28.790Z,1015.64
2019-06-08T09:34:28.379Z,1015.67
2019-06-08T09:35:28.118Z,1015.70
2019-06-08T09:36:28.647Z,1015.70
2019-06-08T09:37:28.827Z,1015.65
2019-06-08T09:38:28.724Z,1015.54
2019-06-08T09:39:28.667Z,1015.55
2019-06-08T09:40:31.857Z,1015.48
2019-06-08T09:41:31.161Z,1015.45
2019-06-08T09:42:28.481Z,1015.42
2019-06-08T09:43:28.902Z,1015.50
2019-06-08T09:44:28.191Z,1015.52
2019-06-08T09:45:28.973Z,1015.50
2019-06-08T09:46:28.236Z,1015.57
2019-06-08T09:47:28.117Z,1015.59
2019-06-08T09:48:28.862Z,1015.70
2019-06-08T09:49:28.099Z,1015.71
2019-06-08T09:50:27.973Z,1015.69
2019-06-08T09:51:28.488Z,1015.76
2019-06-08T09:52:28.264Z,1015.65
2019-06-08T09:53:36.965Z,1015.57
2019-06-08T09:54:28.870Z,1015.48
2019-06-08T09:55:28.847Z,1015.46
2019-06-08T09:56:28.416Z,1015.55
2019-06-08T09:57:28.442Z,1015.62
2019-06-08T09:58:29.104Z,1015.67
2019-06-08T09:59:28.506Z,1015.74
2019-06-08T10:00:29.289Z,1015.93
2019-06-08T10:01:28.675Z,1015.94
2019-06-08T10:02:28.363Z,1016.04
2019-06-08T10:03:30.654Z,1015.93
2019-06-08T10:04:29.164Z,1016.09
2019-06-08T10:05:27.786Z,1016.11
2019-06-08T10:06:27.820Z,1016.11
2019-06-08T10:07:28.613Z,1016.13
2019-06-08T10:08:28.281Z,1016.23
2019-06-08T10:09:28.412Z,1016.16
2019-06-08T10:10:27.693Z,1016.18
2019-06-08T10:11:28.171Z,1016.21
2019-06-08T10:12:28.187Z,1016.23
2019-06-08T10:13:28.037Z,1016.21
2019-06-08T10:14:28.179Z,1016.24
2019-06-08T10:15:27.900Z,1016.19
2019-06-08T10:16:30.537Z,1016.11
2019-06-08T10:17:27.983Z,1016.11
2019-06-08T10:18:28.491Z,1016.03
2019-06-08T10:19:27.598Z,1016.05
2019-06-08T10:20:28.825Z,1016.08
2019-06-08T10:21:28.436Z,1016.13
2019-06-08T10:22:28.287Z,1016.07
2019-06-08T10:23:34.025Z,1016.06
2019-06-08T10:24:28.552Z,1016.03
2019-06-08T10:25:28.639Z,1016.02
2019-06-08T10:26:28.029Z,1015.99
2019-06-08T10:27:28.333Z,1016.02
2019-06-08T10:28:29.002Z,1015.96
2019-06-08T10:29:27.485Z,1016.00
2019-06-08T10:30:30.111Z,1015.95
2019-06-08T10:31:36.564Z,1015.91
2019-06-08T10:32:28.465Z,1015.79
2019-06-08T10:33:28.183Z,1015.76
2019-06-08T10:34:29.592Z,1015.69
2019-06-08T10:35:28.356Z,1015.69
2019-06-08T10:36:28.389Z,1015.55
2019-06-08T10:37:28.349Z,1015.59
2019-06-08T10:38:28.989Z,1015.56
2019-06-08T10:39:28.376Z,1015.72
2019-06-08T10:40:28.515Z,1015.84
2019-06-08T10:41:27.898Z,1015.86
2019-06-08T10:42:27.345Z,1015.85
2019-06-08T10:43:28.925Z,1015.79
2019-06-08T10:44:28.391Z,1015.85
2019-06-08T10:45:28.599Z,1015.83
2019-06-08T10:46:27.303Z,1015.80
2019-06-08T10:47:29.583Z,1015.83
2019-06-08T10:48:27.679Z,1015.85
2019-06-08T10:49:28.714Z,1015.85
2019-06-08T10:50:28.807Z,1015.79
2019-06-08T10:51:27.245Z,1015.92
2019-06-08T10:52:28.169Z,1015.93
2019-06-08T10:53:29.758Z,1015.98
2019-06-08T10:54:28.210Z,1015.95
2019-06-08T10:55:28.079Z,1015.86
2019-06-08T10:56:30.905Z,1015.95
2019-06-08T10:57:28.016Z,1015.96
2019-06-08T10:58:28.392Z,1016.04
2019-06-08T10:59:28.927Z,1016.07
2019-06-08T11:00:28.144Z,1016.14
2019-06-08T11:01:28.260Z,1016.09
2019-06-08T11:02:28.233Z,1016.01
2019-06-08T11:03:30.396Z,1016.05
2019-06-08T11:04:28.662Z,1016.13
2019-06-08T11:05:28.060Z,1016.14
2019-06-08T11:06:27.109Z,1016.09
2019-06-08T11:07:28.010Z,1016.08
2019-06-08T11:08:27.650Z,1016.17
2019-06-08T11:09:28.599Z,1016.16
2019-06-08T11:10:27.053Z,1016.06
2019-06-08T11:11:28.504Z,1016.13
2019-06-08T11:12:28.319Z,1016.12
2019-06-08T11:13:28.278Z,1016.14
2019-06-08T11:14:27.997Z,1016.21
2019-06-08T11:15:29.404Z,1016.33
2019-06-08T11:16:28.662Z,1016.35
2019-06-08T11:17:27.920Z,1016.32
2019-06-08T11:18:28.639Z,1016.23
2019-06-08T11:19:26.950Z,1016.02
2019-06-08T11:20:27.563Z,1016.09
2019-06-08T11:21:28.613Z,1015.98
2019-06-08T11:22:27.881Z,1015.94
2019-06-08T11:23:28.750Z,1015.88
2019-06-08T11:24:28.798Z,1015.84
2019-06-08T11:25:27.995Z,1015.75
2019-06-08T11:26:28.927Z,1015.58
2019-06-08T11:27:28.473Z,1015.61
2019-06-08T11:28:28.355Z,1015.74
2019-06-08T11:29:27.554Z,1015.81
2019-06-08T11:30:30.317Z,1015.85
2019-06-08T11:31:29.806Z,1015.95
2019-06-08T11:32:27.803Z,1015.89
2019-06-08T11:33:30.243Z,1015.91
2019-06-08T11:34:28.695Z,1016.01
2019-06-08T11:35:28.618Z,1015.90
2019-06-08T11:36:28.215Z,1015.86
2019-06-08T11:37:26.751Z,1015.88
2019-06-08T11:38:28.889Z,1015.88
2019-06-08T11:39:28.706Z,1015.90
2019-06-08T11:40:27.857Z,1015.81
2019-06-08T11:41:27.826Z,1015.91
2019-06-08T11:42:28.638Z,1015.77
2019-06-08T11:43:28.743Z,1015.87
2019-06-08T11:44:27.615Z,1015.82
2019-06-08T11:45:26.667Z,1015.93
2019-06-08T11:46:28.173Z,1015.77
2019-06-08T11:47:27.732Z,1015.90
2019-06-08T11:48:28.538Z,1015.91
2019-06-08T11:49:27.883Z,1015.81
2019-06-08T11:50:26.612Z,1015.86
2019-06-08T11:51:29.648Z,1015.93
2019-06-08T11:52:28.579Z,1015.99
2019-06-08T11:53:28.680Z,1015.94
2019-06-08T11:54:34.369Z,1015.94
2019-06-08T11:55:28.145Z,1015.93
2019-06-08T11:56:26.548Z,1015.94
2019-06-08T11:57:28.295Z,1015.97
2019-06-08T11:58:28.262Z,1015.92
2019-06-08T11:59:28.483Z,1016.17
2019-06-08T12:00:30.706Z,1016.12
2019-06-08T12:01:27.663Z,1016.10
2019-06-08T12:02:26.488Z,1016.18
2019-06-08T12:03:27.651Z,1016.12
2019-06-08T12:04:28.334Z,1016.05
2019-06-08T12:05:27.835Z,1016.04